Сообщение об ошибке

  • Warning: ini_set(): Headers already sent. You cannot change the session module's ini settings at this time in drupal_environment_initialize() (line 699 of /home/a/auditpro/2.auditpro.beget.tech/public_html/st/includes/bootstrap.inc).
  • Warning: ini_set(): Headers already sent. You cannot change the session module's ini settings at this time in drupal_environment_initialize() (line 700 of /home/a/auditpro/2.auditpro.beget.tech/public_html/st/includes/bootstrap.inc).
  • Warning: ini_set(): Headers already sent. You cannot change the session module's ini settings at this time in drupal_environment_initialize() (line 701 of /home/a/auditpro/2.auditpro.beget.tech/public_html/st/includes/bootstrap.inc).
  • Warning: ini_set(): Headers already sent. You cannot change the session module's ini settings at this time in drupal_environment_initialize() (line 704 of /home/a/auditpro/2.auditpro.beget.tech/public_html/st/includes/bootstrap.inc).
  • Warning: ini_set(): Headers already sent. You cannot change the session module's ini settings at this time in drupal_environment_initialize() (line 706 of /home/a/auditpro/2.auditpro.beget.tech/public_html/st/includes/bootstrap.inc).
  • Warning: ini_set(): Headers already sent. You cannot change the session module's ini settings at this time in include_once() (line 290 of /home/a/auditpro/2.auditpro.beget.tech/public_html/st/sites/default/settings.php).
  • Warning: ini_set(): Headers already sent. You cannot change the session module's ini settings at this time in include_once() (line 291 of /home/a/auditpro/2.auditpro.beget.tech/public_html/st/sites/default/settings.php).
  • Warning: ini_set(): Headers already sent. You cannot change the session module's ini settings at this time in include_once() (line 299 of /home/a/auditpro/2.auditpro.beget.tech/public_html/st/sites/default/settings.php).
  • Warning: ini_set(): Headers already sent. You cannot change the session module's ini settings at this time in include_once() (line 306 of /home/a/auditpro/2.auditpro.beget.tech/public_html/st/sites/default/settings.php).
  • Warning: ini_set(): Headers already sent. You cannot change the session module's ini settings at this time in drupal_settings_initialize() (line 826 of /home/a/auditpro/2.auditpro.beget.tech/public_html/st/includes/bootstrap.inc).
  • Warning: ini_set(): Headers already sent. You cannot change the session module's ini settings at this time in drupal_settings_initialize() (line 835 of /home/a/auditpro/2.auditpro.beget.tech/public_html/st/includes/bootstrap.inc).
  • Warning: session_name(): Cannot change session name when headers already sent in drupal_settings_initialize() (line 838 of /home/a/auditpro/2.auditpro.beget.tech/public_html/st/includes/bootstrap.inc).

Астрахань

СКИДКИ НА СМАРТФОНЫ!

Карта отелей и гостиниц, располагающихся рядом с аэропортом Астрахань :

Астрахань Астраханская область 46° 16' 59.6388" N, 48° 0' 22.3812" E
Код аэродрома ИКАО
URWA
Код аэродрома RU
УРВА
Координаты
N46.28323° E048.00622°
Превышение над уровнем моря
-20
Основная полоса
09/27
Курс магнитный
088,5/268,5
Длина основной ВПП
3200
Ширина основной ВПП
45
Покрытие основной ВПП
Твёрдое (железобетон)
Освещение ВПП
Постоянное
Тип: 
Аэродром
Класс аэродрома: 
Международный
Принадлежность: 
ГА
Статус: 
Действующий
Сайт: 
аэропортастрахань.рф
E-mail аэродрома: 
mail@airport.astrakhan.ru
Страна: 
Россия
Регион: 
Астраханская область
Дополнительная информация: 
Оператор: ОАО «Аэропорт Астрахань». Аэропорт федерального значения, расположенный на южной окраине г. Астрахани в 8 км южнее центра города. До начала 2000-х годов носил наименование «Нариманово». Максимальный взлётный вес воздушного судна: 191 тонна. Классификационное число ВПП (PCN) 63/F/C/Х/T. Оборудование аэродрома позволяет выполнять посадку ВС по метеоминимуму I-й категории ИКАО (800х60м). ДПРМ: 650-GV, БПРМ: 315-G с МК=089°.
Погода: 

Авиационная погода в Астрахани

Регион: 
Погода METAR: 
URWA 301930Z 10003MPS 7000 NSC M09/M10 Q1018 R27/010070 TEMPO 1000 BR BKN003 RMK QFE765/1020
Время наблюдения
2023-01-30T19:30:00Z
Температура C
-9.0
Точка росы
-10.0
Направление ветра
100
Скорость ветра (узлы)
6
Метео видимость
4.35
Облачность
CLR
Нижняя граница облачности (футы)
Явления погоды
Условия полета
MVFR
Аэропорт подробнее: 
CLR — нет облаков ниже 3000 м

Скидки на навигаторы!

Найти трансфер

С помощью этой формы Вы можете найти трансфер из аэропорта Астрахань в город, аэропорт или вокзал:

Погода в аэропортах:

Авиационная погода в Якутске

Регион: 
Погода METAR: 
UEEE 301930Z 00000MPS 0200 0150SW R23L/0650N FG VV002 M47/M52 Q1014 R23L/490150 NOSIG RMK QBB060 QFE752
Время наблюдения
2023-01-30T19:30:00Z
Температура C
-47.0
Точка росы
-52.0
Направление ветра
0
Скорость ветра (узлы)
0
Метео видимость
0.12
Облачность
OVX
Нижняя граница облачности (футы)
0
Явления погоды
FG
Условия полета
LIFR
Аэропорт подробнее: 
FG – туман (небо не видно, температура воздуха выше нуля или ноль);

Авиационная погода в Махачкале

Регион: 
Погода METAR: 
URML 301930Z 25002MPS 4200 BR NSC M00/M02 Q1015 R14/01//70 TEMPO 0600 FG BKN001 RMK QFE761/1015
Время наблюдения
2023-01-30T19:30:00Z
Температура C
0.0
Точка росы
-2.0
Направление ветра
250
Скорость ветра (узлы)
4
Метео видимость
2.61
Облачность
CLR
Нижняя граница облачности (футы)
Явления погоды
BR
Условия полета
IFR
Аэропорт подробнее: 
CLR — нет облаков ниже 3000 м
BR – дымка (видимость от 1 до 9 км);

Авиационная погода в Череповце

Регион: 
Погода METAR: 
ULWC 301930Z 17004G09MPS 1900 SHSN BKN002 OVC013CB M01/M02 Q0986 R21/490337 TEMPO 1000 SHSN BKN002 OVC010CB RMK QBB060 QFE730/0973
Время наблюдения
2023-01-30T19:30:00Z
Температура C
-1.0
Точка росы
-2.0
Направление ветра
170
Скорость ветра (узлы)
8
Метео видимость
1.18
Облачность
BKN
OVC
Нижняя граница облачности (футы)
200
1300
Явления погоды
SHSN
Условия полета
LIFR
Аэропорт подробнее: 
BKN – значительная (рассеянная, разорванная) облачность; OVC – сплошная облачность;
SHSN - ливневой снег;

Авиационная погода в Грозном

Регион: 
Погода METAR: 
URMG 301930Z 03001MPS 4500 BR NSC 00/M01 Q1014 R08/090070 TEMPO 0300 FZFG OVC002 RMK QFE746/0995
Время наблюдения
2023-01-30T19:30:00Z
Температура C
0.0
Точка росы
-1.0
Направление ветра
30
Скорость ветра (узлы)
2
Метео видимость
2.8
Облачность
CLR
Нижняя граница облачности (футы)
Явления погоды
BR
Условия полета
IFR
Аэропорт подробнее: 
CLR — нет облаков ниже 3000 м
BR – дымка (видимость от 1 до 9 км);